sensor_id;sensor_type;location;lat;lon;timestamp;pressure;altitude;pressure_sealevel;temperature;humidity
52927;BME280;40783;49.710;8.842;2023-04-22T00:02:10;98453.00;;;10.37;100.00
52927;BME280;40783;49.710;8.842;2023-04-22T00:04:40;98446.00;;;10.36;100.00
52927;BME280;40783;49.710;8.842;2023-04-22T00:07:10;98443.97;;;10.38;100.00
52927;BME280;40783;49.710;8.842;2023-04-22T00:09:38;98442.66;;;10.34;100.00
52927;BME280;40783;49.710;8.842;2023-04-22T00:12:03;98446.69;;;10.30;100.00
52927;BME280;40783;49.710;8.842;2023-04-22T00:14:29;98437.66;;;10.31;100.00
52927;BME280;40783;49.710;8.842;2023-04-22T00:16:57;98439.66;;;10.29;100.00
52927;BME280;40783;49.710;8.842;2023-04-22T00:19:22;98445.00;;;10.29;100.00
52927;BME280;40783;49.710;8.842;2023-04-22T00:21:48;98434.31;;;10.29;100.00
52927;BME280;40783;49.710;8.842;2023-04-22T00:24:13;98446.22;;;10.26;100.00
52927;BME280;40783;49.710;8.842;2023-04-22T00:26:39;98441.22;;;10.23;100.00
52927;BME280;40783;49.710;8.842;2023-04-22T00:29:04;98436.69;;;10.23;100.00
52927;BME280;40783;49.710;8.842;2023-04-22T00:31:30;98435.38;;;10.19;100.00
52927;BME280;40783;49.710;8.842;2023-04-22T00:33:57;98429.88;;;10.21;100.00
52927;BME280;40783;49.710;8.842;2023-04-22T00:36:22;98428.84;;;10.22;100.00
52927;BME280;40783;49.710;8.842;2023-04-22T00:38:50;98430.69;;;10.21;100.00
52927;BME280;40783;49.710;8.842;2023-04-22T00:41:16;98431.00;;;10.27;100.00
52927;BME280;40783;49.710;8.842;2023-04-22T00:43:41;98427.31;;;10.28;100.00
52927;BME280;40783;49.710;8.842;2023-04-22T00:46:07;98421.50;;;10.24;100.00
52927;BME280;40783;49.710;8.842;2023-04-22T00:48:34;98431.00;;;10.27;100.00
52927;BME280;40783;49.710;8.842;2023-04-22T00:51:01;98431.00;;;10.27;100.00
52927;BME280;40783;49.710;8.842;2023-04-22T00:53:26;98421.97;;;10.28;100.00
52927;BME280;40783;49.710;8.842;2023-04-22T00:55:51;98419.28;;;10.28;100.00
52927;BME280;40783;49.710;8.842;2023-04-22T00:58:17;98420.63;;;10.32;100.00
52927;BME280;40783;49.710;8.842;2023-04-22T01:00:43;98422.28;;;10.33;100.00
52927;BME280;40783;49.710;8.842;2023-04-22T01:03:08;98416.28;;;10.31;100.00
52927;BME280;40783;49.710;8.842;2023-04-22T01:05:34;98418.63;;;10.25;100.00
52927;BME280;40783;49.710;8.842;2023-04-22T01:08:01;98415.31;;;10.23;100.00
52927;BME280;40783;49.710;8.842;2023-04-22T01:10:29;98408.28;;;10.22;100.00
52927;BME280;40783;49.710;8.842;2023-04-22T01:12:54;98402.94;;;10.22;100.00
52927;BME280;40783;49.710;8.842;2023-04-22T01:15:20;98412.81;;;10.22;100.00
52927;BME280;40783;49.710;8.842;2023-04-22T01:17:45;98411.16;;;10.21;100.00
52927;BME280;40783;49.710;8.842;2023-04-22T01:20:13;98416.00;;;10.17;100.00
52927;BME280;40783;49.710;8.842;2023-04-22T01:22:41;98410.66;;;10.17;100.00
52927;BME280;40783;49.710;8.842;2023-04-22T01:25:09;98405.16;;;10.19;100.00
52927;BME280;40783;49.710;8.842;2023-04-22T01:27:36;98399.63;;;10.20;100.00
52927;BME280;40783;49.710;8.842;2023-04-22T01:30:03;98404.66;;;10.15;100.00
52927;BME280;40783;49.710;8.842;2023-04-22T01:32:34;98399.50;;;10.14;100.00
52927;BME280;40783;49.710;8.842;2023-04-22T01:35:05;98417.19;;;10.15;100.00
52927;BME280;40783;49.710;8.842;2023-04-22T01:37:36;98408.69;;;10.11;100.00
52927;BME280;40783;49.710;8.842;2023-04-22T01:40:04;98414.69;;;10.13;100.00
52927;BME280;40783;49.710;8.842;2023-04-22T01:42:30;98410.69;;;10.09;100.00
52927;BME280;40783;49.710;8.842;2023-04-22T01:44:55;98410.03;;;10.07;100.00
52927;BME280;40783;49.710;8.842;2023-04-22T01:47:21;98410.03;;;10.07;100.00
52927;BME280;40783;49.710;8.842;2023-04-22T01:49:46;98419.06;;;10.06;100.00
52927;BME280;40783;49.710;8.842;2023-04-22T01:52:12;98422.38;;;10.08;100.00
52927;BME280;40783;49.710;8.842;2023-04-22T01:54:37;98411.06;;;10.06;100.00
52927;BME280;40783;49.710;8.842;2023-04-22T01:57:08;98428.09;;;10.05;100.00
52927;BME280;40783;49.710;8.842;2023-04-22T01:59:34;98416.44;;;9.98;100.00
52927;BME280;40783;49.710;8.842;2023-04-22T02:02:00;98413.09;;;9.95;100.00
52927;BME280;40783;49.710;8.842;2023-04-22T02:04:25;98421.63;;;9.91;100.00
52927;BME280;40783;49.710;8.842;2023-04-22T02:06:50;98420.59;;;9.92;100.00
52927;BME280;40783;49.710;8.842;2023-04-22T02:09:18;98415.44;;;9.90;100.00
52927;BME280;40783;49.710;8.842;2023-04-22T02:11:43;98411.28;;;9.88;100.00
52927;BME280;40783;49.710;8.842;2023-04-22T02:14:08;98409.78;;;9.85;100.00
52927;BME280;40783;49.710;8.842;2023-04-22T02:16:36;98412.13;;;9.88;100.00
52927;BME280;40783;49.710;8.842;2023-04-22T02:19:01;98411.13;;;9.81;100.00
52927;BME280;40783;49.710;8.842;2023-04-22T02:21:30;98415.94;;;9.86;100.00
52927;BME280;40783;49.710;8.842;2023-04-22T02:23:56;98419.81;;;9.83;100.00
52927;BME280;40783;49.710;8.842;2023-04-22T02:26:22;98423.81;;;9.79;100.00
52927;BME280;40783;49.710;8.842;2023-04-22T02:28:47;98420.50;;;9.77;100.00
52927;BME280;40783;49.710;8.842;2023-04-22T02:31:13;98424.50;;;9.73;100.00
52927;BME280;40783;49.710;8.842;2023-04-22T02:33:40;98427.19;;;9.73;100.00
52927;BME280;40783;49.710;8.842;2023-04-22T02:36:10;98419.00;;;9.74;100.00
52927;BME280;40783;49.710;8.842;2023-04-22T02:38:36;98428.84;;;9.74;100.00
52927;BME280;40783;49.710;8.842;2023-04-22T02:41:02;98431.84;;;9.71;100.00
52927;BME280;40783;49.710;8.842;2023-04-22T02:43:27;98420.00;;;9.73;100.00
52927;BME280;40783;49.710;8.842;2023-04-22T02:45:52;98432.34;;;9.74;100.00
52927;BME280;40783;49.710;8.842;2023-04-22T02:48:20;98418.00;;;9.75;100.00
52927;BME280;40783;49.710;8.842;2023-04-22T02:50:47;98423.19;;;9.69;100.00
52927;BME280;40783;49.710;8.842;2023-04-22T02:53:14;98420.19;;;9.63;100.00
52927;BME280;40783;49.710;8.842;2023-04-22T02:55:42;98416.50;;;9.64;100.00
52927;BME280;40783;49.710;8.842;2023-04-22T02:58:08;98415.38;;;9.59;100.00
52927;BME280;40783;49.710;8.842;2023-04-22T03:00:34;98419.69;;;9.60;100.00
52927;BME280;40783;49.710;8.842;2023-04-22T03:02:59;98421.72;;;9.58;100.00
52927;BME280;40783;49.710;8.842;2023-04-22T03:05:27;98420.84;;;9.57;100.00
52927;BME280;40783;49.710;8.842;2023-04-22T03:07:53;98413.50;;;9.59;100.00
52927;BME280;40783;49.710;8.842;2023-04-22T03:10:23;98412.69;;;9.59;100.00
52927;BME280;40783;49.710;8.842;2023-04-22T03:12:49;98420.03;;;9.57;100.00
52927;BME280;40783;49.710;8.842;2023-04-22T03:15:14;98417.84;;;9.60;100.00
52927;BME280;40783;49.710;8.842;2023-04-22T03:17:39;98415.53;;;9.57;100.00
52927;BME280;40783;49.710;8.842;2023-04-22T03:20:10;98415.84;;;9.54;100.00
52927;BME280;40783;49.710;8.842;2023-04-22T03:22:39;98423.22;;;9.52;100.00
52927;BME280;40783;49.710;8.842;2023-04-22T03:25:06;98421.56;;;9.51;100.00
52927;BME280;40783;49.710;8.842;2023-04-22T03:27:32;98418.56;;;9.46;100.00
52927;BME280;40783;49.710;8.842;2023-04-22T03:29:57;98419.41;;;9.30;100.00
52927;BME280;40783;49.710;8.842;2023-04-22T03:32:23;98427.41;;;9.30;100.00
52927;BME280;40783;49.710;8.842;2023-04-22T03:34:48;98433.41;;;9.32;100.00
52927;BME280;40783;49.710;8.842;2023-04-22T03:37:15;98432.41;;;9.33;100.00
52927;BME280;40783;49.710;8.842;2023-04-22T03:39:40;98438.44;;;9.18;100.00
52927;BME280;40783;49.710;8.842;2023-04-22T03:42:05;98429.25;;;9.21;100.00
52927;BME280;40783;49.710;8.842;2023-04-22T03:44:30;98433.59;;;9.22;100.00
52927;BME280;40783;49.710;8.842;2023-04-22T03:46:56;98439.91;;;9.21;100.00
52927;BME280;40783;49.710;8.842;2023-04-22T03:49:21;98435.59;;;9.20;100.00
52927;BME280;40783;49.710;8.842;2023-04-22T03:51:49;98433.59;;;9.22;100.00
52927;BME280;40783;49.710;8.842;2023-04-22T03:54:14;98429.59;;;9.18;100.00
52927;BME280;40783;49.710;8.842;2023-04-22T03:56:40;98434.59;;;9.13;100.00
52927;BME280;40783;49.710;8.842;2023-04-22T03:59:07;98434.91;;;9.10;100.00
52927;BME280;40783;49.710;8.842;2023-04-22T04:01:32;98438.25;;;9.03;100.00
52927;BME280;40783;49.710;8.842;2023-04-22T04:03:58;98428.94;;;8.99;100.00
52927;BME280;40783;49.710;8.842;2023-04-22T04:06:23;98432.94;;;8.95;100.00
52927;BME280;40783;49.710;8.842;2023-04-22T04:08:48;98430.41;;;8.94;100.00
52927;BME280;40783;49.710;8.842;2023-04-22T04:11:14;98430.91;;;8.81;100.00
52927;BME280;40783;49.710;8.842;2023-04-22T04:13:39;98422.56;;;8.75;100.00
52927;BME280;40783;49.710;8.842;2023-04-22T04:16:04;98419.38;;;8.80;100.00
52927;BME280;40783;49.710;8.842;2023-04-22T04:18:31;98414.59;;;8.84;100.00
52927;BME280;40783;49.710;8.842;2023-04-22T04:20:56;98423.25;;;8.86;100.00
52927;BME280;40783;49.710;8.842;2023-04-22T04:23:22;98419.91;;;8.75;100.00
52927;BME280;40783;49.710;8.842;2023-04-22T04:25:47;98415.88;;;8.71;100.00
52927;BME280;40783;49.710;8.842;2023-04-22T04:28:12;98422.38;;;8.77;100.00
52927;BME280;40783;49.710;8.842;2023-04-22T04:30:41;98417.88;;;8.69;100.00
52927;BME280;40783;49.710;8.842;2023-04-22T04:33:07;98412.88;;;8.66;100.00
52927;BME280;40783;49.710;8.842;2023-04-22T04:35:34;98410.19;;;8.58;100.00
52927;BME280;40783;49.710;8.842;2023-04-22T04:38:00;98405.84;;;8.49;100.00
52927;BME280;40783;49.710;8.842;2023-04-22T04:40:29;98399.53;;;8.58;100.00
52927;BME280;40783;49.710;8.842;2023-04-22T04:42:55;98400.56;;;8.65;100.00
52927;BME280;40783;49.710;8.842;2023-04-22T04:45:22;98402.22;;;8.66;100.00
52927;BME280;40783;49.710;8.842;2023-04-22T04:47:47;98399.56;;;8.66;100.00
52927;BME280;40783;49.710;8.842;2023-04-22T04:50:19;98399.41;;;8.68;100.00
52927;BME280;40783;49.710;8.842;2023-04-22T04:52:47;98397.56;;;8.68;100.00
52927;BME280;40783;49.710;8.842;2023-04-22T04:55:15;98401.91;;;8.69;100.00
52927;BME280;40783;49.710;8.842;2023-04-22T04:57:44;98401.91;;;8.69;100.00
52927;BME280;40783;49.710;8.842;2023-04-22T05:00:10;98402.56;;;8.80;100.00
52927;BME280;40783;49.710;8.842;2023-04-22T05:02:36;98396.25;;;8.89;100.00
52927;BME280;40783;49.710;8.842;2023-04-22T05:05:01;98390.94;;;8.89;100.00
52927;BME280;40783;49.710;8.842;2023-04-22T05:07:27;98400.94;;;8.95;100.00
52927;BME280;40783;49.710;8.842;2023-04-22T05:09:52;98398.94;;;8.97;100.00
52927;BME280;40783;49.710;8.842;2023-04-22T05:12:21;98396.94;;;8.99;100.00
52927;BME280;40783;49.710;8.842;2023-04-22T05:14:46;98401.06;;;8.85;100.00
52927;BME280;40783;49.710;8.842;2023-04-22T05:17:14;98397.25;;;8.96;100.00
52927;BME280;40783;49.710;8.842;2023-04-22T05:19:41;98398.25;;;9.03;100.00
52927;BME280;40783;49.710;8.842;2023-04-22T05:22:09;98397.91;;;9.06;100.00
52927;BME280;40783;49.710;8.842;2023-04-22T05:24:35;98390.91;;;9.05;100.00
52927;BME280;40783;49.710;8.842;2023-04-22T05:27:00;98393.56;;;9.14;100.00
52927;BME280;40783;49.710;8.842;2023-04-22T05:29:26;98394.91;;;9.18;100.00
52927;BME280;40783;49.710;8.842;2023-04-22T05:31:51;98395.56;;;9.12;100.00
52927;BME280;40783;49.710;8.842;2023-04-22T05:34:19;98398.75;;;9.07;100.00
52927;BME280;40783;49.710;8.842;2023-04-22T05:36:49;98407.91;;;9.21;100.00
52927;BME280;40783;49.710;8.842;2023-04-22T05:39:17;98403.25;;;9.23;100.00
52927;BME280;40783;49.710;8.842;2023-04-22T05:41:42;98408.25;;;9.26;100.00
52927;BME280;40783;49.710;8.842;2023-04-22T05:44:08;98408.38;;;9.33;100.00
52927;BME280;40783;49.710;8.842;2023-04-22T05:46:36;98405.22;;;9.38;100.00
52927;BME280;40783;49.710;8.842;2023-04-22T05:49:03;98408.22;;;9.43;100.00
52927;BME280;40783;49.710;8.842;2023-04-22T05:51:28;98399.69;;;9.47;100.00
52927;BME280;40783;49.710;8.842;2023-04-22T05:53:54;98405.88;;;9.48;100.00
52927;BME280;40783;49.710;8.842;2023-04-22T05:56:19;98405.19;;;9.54;100.00
52927;BME280;40783;49.710;8.842;2023-04-22T05:58:46;98404.50;;;9.60;100.00
52927;BME280;40783;49.710;8.842;2023-04-22T06:01:12;98408.16;;;9.68;100.00
52927;BME280;40783;49.710;8.842;2023-04-22T06:03:39;98406.81;;;9.72;100.00
52927;BME280;40783;49.710;8.842;2023-04-22T06:06:05;98410.50;;;9.71;100.00
52927;BME280;40783;49.710;8.842;2023-04-22T06:08:31;98420.84;;;9.74;100.00
52927;BME280;40783;49.710;8.842;2023-04-22T06:10:58;98414.44;;;9.91;100.00
52927;BME280;40783;49.710;8.842;2023-04-22T06:13:25;98411.22;;;10.04;100.00
52927;BME280;40783;49.710;8.842;2023-04-22T06:15:53;98410.16;;;10.22;100.00
52927;BME280;40783;49.710;8.842;2023-04-22T06:18:18;98412.13;;;10.28;100.00
52927;BME280;40783;49.710;8.842;2023-04-22T06:20:48;98415.59;;;10.37;100.00
52927;BME280;40783;49.710;8.842;2023-04-22T06:23:13;98412.19;;;10.51;100.00
52927;BME280;40783;49.710;8.842;2023-04-22T06:25:38;98403.75;;;10.63;100.00
52927;BME280;40783;49.710;8.842;2023-04-22T06:28:06;98413.38;;;10.72;100.00
52927;BME280;40783;49.710;8.842;2023-04-22T06:30:31;98414.59;;;10.93;100.00
52927;BME280;40783;49.710;8.842;2023-04-22T06:32:59;98409.59;;;11.13;100.00
52927;BME280;40783;49.710;8.842;2023-04-22T06:35:25;98418.00;;;11.25;100.00
52927;BME280;40783;49.710;8.842;2023-04-22T06:37:54;98423.13;;;11.35;100.00
52927;BME280;40783;49.710;8.842;2023-04-22T06:40:19;98424.53;;;11.46;100.00
52927;BME280;40783;49.710;8.842;2023-04-22T06:42:44;98421.50;;;11.64;100.00
52927;BME280;40783;49.710;8.842;2023-04-22T06:45:10;98419.66;;;11.94;100.00
52927;BME280;40783;49.710;8.842;2023-04-22T06:47:38;98415.53;;;12.07;100.00
52927;BME280;40783;49.710;8.842;2023-04-22T06:50:07;98417.16;;;12.38;100.00
52927;BME280;40783;49.710;8.842;2023-04-22T06:52:33;98425.25;;;12.81;100.00
52927;BME280;40783;49.710;8.842;2023-04-22T06:54:58;98417.47;;;13.08;100.00
52927;BME280;40783;49.710;8.842;2023-04-22T06:57:26;98409.63;;;13.57;100.00
52927;BME280;40783;49.710;8.842;2023-04-22T06:59:51;98415.09;;;13.70;100.00
52927;BME280;40783;49.710;8.842;2023-04-22T07:02:17;98405.63;;;13.81;100.00
52927;BME280;40783;49.710;8.842;2023-04-22T07:04:42;98404.16;;;14.14;100.00
52927;BME280;40783;49.710;8.842;2023-04-22T07:07:12;98400.91;;;14.25;100.00
52927;BME280;40783;49.710;8.842;2023-04-22T07:09:38;98402.38;;;14.34;100.00
52927;BME280;40783;49.710;8.842;2023-04-22T07:12:04;98399.28;;;14.37;100.00
52927;BME280;40783;49.710;8.842;2023-04-22T07:14:29;98400.25;;;14.72;100.00
52927;BME280;40783;49.710;8.842;2023-04-22T07:16:59;98394.06;;;15.05;100.00
52927;BME280;40783;49.710;8.842;2023-04-22T07:19:27;98384.97;;;15.06;100.00
52927;BME280;40783;49.710;8.842;2023-04-22T07:21:55;98389.50;;;14.98;100.00
52927;BME280;40783;49.710;8.842;2023-04-22T07:24:20;98394.06;;;15.05;100.00
52927;BME280;40783;49.710;8.842;2023-04-22T07:26:45;98388.28;;;15.08;99.87
52927;BME280;40783;49.710;8.842;2023-04-22T07:29:11;98393.69;;;15.21;98.93
52927;BME280;40783;49.710;8.842;2023-04-22T07:31:41;98381.41;;;15.66;98.72
52927;BME280;40783;49.710;8.842;2023-04-22T07:34:06;98377.44;;;15.75;92.30
52927;BME280;40783;49.710;8.842;2023-04-22T07:36:36;98382.97;;;16.07;93.45
52927;BME280;40783;49.710;8.842;2023-04-22T07:39:04;98376.44;;;16.35;82.94
52927;BME280;40783;49.710;8.842;2023-04-22T07:41:29;98380.13;;;16.41;80.74
52927;BME280;40783;49.710;8.842;2023-04-22T07:43:57;98375.81;;;16.33;86.93
52927;BME280;40783;49.710;8.842;2023-04-22T07:46:22;98372.69;;;16.36;88.16
52927;BME280;40783;49.710;8.842;2023-04-22T07:48:53;98375.59;;;16.35;86.16
52927;BME280;40783;49.710;8.842;2023-04-22T07:51:20;98374.00;;;16.20;89.27
52927;BME280;40783;49.710;8.842;2023-04-22T07:53:48;98375.03;;;16.26;90.39
52927;BME280;40783;49.710;8.842;2023-04-22T07:56:16;98379.44;;;16.13;87.94
52927;BME280;40783;49.710;8.842;2023-04-22T07:58:45;98371.72;;;16.17;85.62
52927;BME280;40783;49.710;8.842;2023-04-22T08:01:11;98371.66;;;16.37;82.54
52927;BME280;40783;49.710;8.842;2023-04-22T08:03:38;98360.53;;;16.59;77.17
52927;BME280;40783;49.710;8.842;2023-04-22T08:06:04;98367.94;;;16.70;85.43
52927;BME280;40783;49.710;8.842;2023-04-22T08:08:29;98366.63;;;16.80;81.21
52927;BME280;40783;49.710;8.842;2023-04-22T08:10:54;98372.22;;;16.85;78.81
52927;BME280;40783;49.710;8.842;2023-04-22T08:13:22;98374.56;;;16.74;75.63
52927;BME280;40783;49.710;8.842;2023-04-22T08:15:47;98367.66;;;17.11;79.00
52927;BME280;40783;49.710;8.842;2023-04-22T08:18:16;98370.19;;;17.05;75.77
52927;BME280;40783;49.710;8.842;2023-04-22T08:20:42;98370.88;;;17.26;78.76
52927;BME280;40783;49.710;8.842;2023-04-22T08:23:07;98364.69;;;17.19;79.83
52927;BME280;40783;49.710;8.842;2023-04-22T08:25:37;98369.56;;;17.35;86.09
52927;BME280;40783;49.710;8.842;2023-04-22T08:28:05;98372.06;;;17.56;81.31
52927;BME280;40783;49.710;8.842;2023-04-22T08:30:30;98360.97;;;17.64;83.04
52927;BME280;40783;49.710;8.842;2023-04-22T08:32:58;98359.69;;;17.67;78.07
52927;BME280;40783;49.710;8.842;2023-04-22T08:35:25;98360.00;;;17.77;78.26
52927;BME280;40783;49.710;8.842;2023-04-22T08:37:54;98370.81;;;17.77;75.79
52927;BME280;40783;49.710;8.842;2023-04-22T08:40:19;98362.09;;;17.75;79.21
52927;BME280;40783;49.710;8.842;2023-04-22T08:42:44;98368.38;;;17.69;75.58
52927;BME280;40783;49.710;8.842;2023-04-22T08:45:12;98367.19;;;17.64;75.10
52927;BME280;40783;49.710;8.842;2023-04-22T08:47:40;98369.00;;;17.71;78.40
52927;BME280;40783;49.710;8.842;2023-04-22T08:50:07;98363.06;;;17.80;77.43
52927;BME280;40783;49.710;8.842;2023-04-22T08:52:35;98369.47;;;17.86;76.81
52927;BME280;40783;49.710;8.842;2023-04-22T08:55:01;98372.09;;;17.93;78.02
52927;BME280;40783;49.710;8.842;2023-04-22T08:57:26;98364.75;;;18.00;81.17
52927;BME280;40783;49.710;8.842;2023-04-22T08:59:56;98365.06;;;18.11;75.77
52927;BME280;40783;49.710;8.842;2023-04-22T09:02:23;98361.66;;;18.15;75.02
52927;BME280;40783;49.710;8.842;2023-04-22T09:04:50;98363.69;;;18.20;75.33
52927;BME280;40783;49.710;8.842;2023-04-22T09:07:24;98364.34;;;18.34;73.54
52927;BME280;40783;49.710;8.842;2023-04-22T09:09:56;98356.81;;;18.36;74.24
52927;BME280;40783;49.710;8.842;2023-04-22T09:12:23;98364.25;;;18.41;78.70
52927;BME280;40783;49.710;8.842;2023-04-22T09:14:51;98361.91;;;18.44;78.05
52927;BME280;40783;49.710;8.842;2023-04-22T09:17:33;98360.66;;;18.59;77.14
52927;BME280;40783;49.710;8.842;2023-04-22T09:20:00;98359.97;;;18.63;75.73
52927;BME280;40783;49.710;8.842;2023-04-22T09:22:27;98349.91;;;18.82;72.60
52927;BME280;40783;49.710;8.842;2023-04-22T09:24:53;98360.59;;;18.77;75.11
52927;BME280;40783;49.710;8.842;2023-04-22T09:27:19;98352.88;;;18.81;77.23
52927;BME280;40783;49.710;8.842;2023-04-22T09:29:49;98355.59;;;18.93;76.08
52927;BME280;40783;49.710;8.842;2023-04-22T09:32:15;98343.84;;;18.99;73.28
52927;BME280;40783;49.710;8.842;2023-04-22T09:34:51;98355.47;;;18.88;70.76
52927;BME280;40783;49.710;8.842;2023-04-22T09:37:23;98361.53;;;19.13;74.78
52927;BME280;40783;49.710;8.842;2023-04-22T09:39:53;98351.66;;;19.19;69.64
52927;BME280;40783;49.710;8.842;2023-04-22T09:42:20;98357.31;;;19.41;71.08
52927;BME280;40783;49.710;8.842;2023-04-22T09:44:50;98354.00;;;19.51;67.73
52927;BME280;40783;49.710;8.842;2023-04-22T09:47:21;98348.56;;;19.63;61.27
52927;BME280;40783;49.710;8.842;2023-04-22T09:49:48;98347.63;;;19.69;60.37
52927;BME280;40783;49.710;8.842;2023-04-22T09:52:20;98354.69;;;19.70;60.80
52927;BME280;40783;49.710;8.842;2023-04-22T09:54:49;98350.69;;;19.61;59.85
52927;BME280;40783;49.710;8.842;2023-04-22T09:57:17;98349.41;;;19.64;58.00
52927;BME280;40783;49.710;8.842;2023-04-22T09:59:42;98348.81;;;19.73;58.02
52927;BME280;40783;49.710;8.842;2023-04-22T10:02:08;98352.56;;;19.72;58.83
52927;BME280;40783;49.710;8.842;2023-04-22T10:04:33;98350.91;;;19.71;56.53
52927;BME280;40783;49.710;8.842;2023-04-22T10:06:59;98348.47;;;19.70;59.05
52927;BME280;40783;49.710;8.842;2023-04-22T10:09:26;98347.16;;;19.72;62.13
52927;BME280;40783;49.710;8.842;2023-04-22T10:11:54;98350.00;;;19.66;57.63
52927;BME280;40783;49.710;8.842;2023-04-22T10:14:21;98345.97;;;19.68;58.36
52927;BME280;40783;49.710;8.842;2023-04-22T10:16:47;98341.16;;;19.58;57.01
52927;BME280;40783;49.710;8.842;2023-04-22T10:19:19;98335.97;;;19.57;58.42
52927;BME280;40783;49.710;8.842;2023-04-22T10:21:46;98334.81;;;19.53;57.11
52927;BME280;40783;49.710;8.842;2023-04-22T10:24:18;98338.47;;;19.47;58.85
52927;BME280;40783;49.710;8.842;2023-04-22T10:29:14;98326.19;;;19.56;56.91
52927;BME280;40783;49.710;8.842;2023-04-22T10:31:42;98327.84;;;19.57;57.67
52927;BME280;40783;49.710;8.842;2023-04-22T10:34:14;98329.69;;;19.68;55.77
52927;BME280;40783;49.710;8.842;2023-04-22T10:36:55;98334.88;;;19.82;58.42
52927;BME280;40783;49.710;8.842;2023-04-22T10:39:23;98327.31;;;19.84;59.05
52927;BME280;40783;49.710;8.842;2023-04-22T10:41:56;98329.69;;;19.92;53.62
52927;BME280;40783;49.710;8.842;2023-04-22T10:44:22;98329.81;;;19.85;55.09
52927;BME280;40783;49.710;8.842;2023-04-22T10:49:18;98322.63;;;19.91;54.38
52927;BME280;40783;49.710;8.842;2023-04-22T10:51:45;98321.56;;;19.92;51.94
52927;BME280;40783;49.710;8.842;2023-04-22T10:59:26;98312.72;;;19.73;52.78
52927;BME280;40783;49.710;8.842;2023-04-22T11:01:51;98313.66;;;19.79;50.63
52927;BME280;40783;49.710;8.842;2023-04-22T11:04:23;98309.41;;;19.83;53.64
52927;BME280;40783;49.710;8.842;2023-04-22T11:09:50;98304.69;;;19.90;49.71
52927;BME280;40783;49.710;8.842;2023-04-22T11:14:59;98302.81;;;20.20;50.26
52927;BME280;40783;49.710;8.842;2023-04-22T11:17:25;98298.38;;;20.13;48.92
52927;BME280;40783;49.710;8.842;2023-04-22T11:19:53;98303.94;;;20.07;47.88
52927;BME280;40783;49.710;8.842;2023-04-22T11:22:25;98307.41;;;20.19;50.18
52927;BME280;40783;49.710;8.842;2023-04-22T11:24:54;98304.13;;;20.17;47.99
52927;BME280;40783;49.710;8.842;2023-04-22T11:27:19;98306.16;;;20.39;48.36
52927;BME280;40783;49.710;8.842;2023-04-22T11:30:09;98290.56;;;20.46;46.10
52927;BME280;40783;49.710;8.842;2023-04-22T11:32:39;98294.34;;;20.45;49.03
52927;BME280;40783;49.710;8.842;2023-04-22T11:35:06;98293.50;;;20.44;46.76
52927;BME280;40783;49.710;8.842;2023-04-22T11:40:29;98295.31;;;20.39;47.85
52927;BME280;40783;49.710;8.842;2023-04-22T11:42:55;98294.13;;;20.35;49.47
52927;BME280;40783;49.710;8.842;2023-04-22T11:45:26;98300.16;;;20.37;48.35
52927;BME280;40783;49.710;8.842;2023-04-22T11:47:52;98303.16;;;20.23;47.33
52927;BME280;40783;49.710;8.842;2023-04-22T11:50:26;98308.19;;;20.31;49.75
52927;BME280;40783;49.710;8.842;2023-04-22T11:55:37;98302.88;;;20.37;51.18
52927;BME280;40783;49.710;8.842;2023-04-22T11:58:10;98307.28;;;20.26;49.48
52927;BME280;40783;49.710;8.842;2023-04-22T12:00:37;98311.97;;;20.30;50.08
52927;BME280;40783;49.710;8.842;2023-04-22T12:03:21;98302.06;;;20.36;52.43
52927;BME280;40783;49.710;8.842;2023-04-22T12:06:03;98299.09;;;20.38;52.21
52927;BME280;40783;49.710;8.842;2023-04-22T12:08:31;98293.16;;;20.41;54.68
52927;BME280;40783;49.710;8.842;2023-04-22T12:10:59;98285.41;;;20.33;52.66
52927;BME280;40783;49.710;8.842;2023-04-22T12:13:32;98295.25;;;20.22;54.53
52927;BME280;40783;49.710;8.842;2023-04-22T12:16:09;98285.75;;;20.36;51.13
52927;BME280;40783;49.710;8.842;2023-04-22T12:23:49;98280.34;;;20.53;51.67
52927;BME280;40783;49.710;8.842;2023-04-22T12:26:16;98275.16;;;20.52;51.99
52927;BME280;40783;49.710;8.842;2023-04-22T12:28:42;98274.44;;;20.56;54.71
52927;BME280;40783;49.710;8.842;2023-04-22T12:31:11;98283.66;;;20.55;55.30
52927;BME280;40783;49.710;8.842;2023-04-22T12:33:37;98279.09;;;20.44;53.05
52927;BME280;40783;49.710;8.842;2023-04-22T12:36:04;98280.28;;;20.48;55.33
52927;BME280;40783;49.710;8.842;2023-04-22T12:38:32;98287.69;;;20.70;55.75
52927;BME280;40783;49.710;8.842;2023-04-22T12:41:04;98285.34;;;20.90;55.35
52927;BME280;40783;49.710;8.842;2023-04-22T12:43:30;98290.44;;;21.04;51.42
52927;BME280;40783;49.710;8.842;2023-04-22T12:45:57;98294.38;;;21.30;53.72
52927;BME280;40783;49.710;8.842;2023-04-22T12:48:25;98280.56;;;21.15;50.96
52927;BME280;40783;49.710;8.842;2023-04-22T12:50:53;98293.09;;;20.99;51.73
52927;BME280;40783;49.710;8.842;2023-04-22T12:53:21;98282.34;;;20.75;49.83
52927;BME280;40783;49.710;8.842;2023-04-22T12:55:49;98290.94;;;20.84;49.37
52927;BME280;40783;49.710;8.842;2023-04-22T12:58:15;98285.34;;;20.90;48.63
52927;BME280;40783;49.710;8.842;2023-04-22T13:00:40;98282.81;;;20.72;49.14
52927;BME280;40783;49.710;8.842;2023-04-22T13:03:08;98291.53;;;20.40;47.97
52927;BME280;40783;49.710;8.842;2023-04-22T13:05:33;98303.16;;;20.23;49.02
52927;BME280;40783;49.710;8.842;2023-04-22T13:08:01;98305.00;;;20.06;51.27
52927;BME280;40783;49.710;8.842;2023-04-22T13:10:26;98302.47;;;20.16;49.81
52927;BME280;40783;49.710;8.842;2023-04-22T13:12:52;98296.06;;;20.22;50.00
52927;BME280;40783;49.710;8.842;2023-04-22T13:15:18;98302.09;;;20.24;49.90
52927;BME280;40783;49.710;8.842;2023-04-22T13:17:44;98299.53;;;20.17;50.11
52927;BME280;40783;49.710;8.842;2023-04-22T13:20:12;98297.63;;;20.18;49.89
52927;BME280;40783;49.710;8.842;2023-04-22T13:22:39;98306.75;;;20.12;48.30
52927;BME280;40783;49.710;8.842;2023-04-22T13:25:06;98298.03;;;20.10;51.28